Harpersfield, New York
Current Conditions -  °F | °C
As of 11:55 PM on Thursday 30 Oct 2014 (Local Time) from KNY0 Reporting Station
Clear Clear  
Wind Chill: 30°   Ceiling: Unl
Heat Index: 34°   Visibility: 10mi
Dew Point: 32°   Wind: 5mph
Humidity: 92%   Direction: 270°W
Pressure: 30.02"   Gusts: NA
Location:  42.44°N, 74.69°W
Report Text: KNY0 310355Z AUTO 27004KT 10SM CLR 01/00 A3002 RMK AO2 T00120000
Loading
Personal Weather Stations






























Interactive Weather Map
Tropical Storm Tracking
New forecast layout! Learn more

10-Day Weather Forecast

Advertisements
Track Severe Weather on mobile